createdAt,value
2019-05-28T00:01:30.261Z,76223.73
2019-05-28T00:06:39.763Z,76242.70
2019-05-28T00:11:49.221Z,76222.74
2019-05-28T00:17:01.460Z,76207.77
2019-05-28T00:22:14.370Z,76226.73
2019-05-28T00:27:25.281Z,76270.66
2019-05-28T00:32:40.730Z,76300.61
2019-05-28T00:37:54.305Z,76254.69
2019-05-28T00:43:06.824Z,76201.78
2019-05-28T00:48:20.110Z,76168.83
2019-05-28T00:53:32.142Z,76161.84
2019-05-28T00:58:44.627Z,76162.84
2019-05-28T01:03:56.739Z,76170.83
2019-05-28T01:09:12.700Z,76222.74
2019-05-28T01:14:20.319Z,76225.73
2019-05-28T01:19:36.523Z,76244.70
2019-05-28T01:24:49.295Z,76242.70
2019-05-28T01:30:02.987Z,76175.82
2019-05-28T01:35:17.005Z,76178.81
2019-05-28T01:40:58.659Z,76165.84
2019-05-28T01:46:08.950Z,76166.84
2019-05-28T01:51:20.950Z,76150.86
2019-05-28T01:56:32.263Z,76146.88
2019-05-28T02:01:42.901Z,76133.90
2019-05-28T02:06:51.542Z,76131.90
2019-05-28T02:12:02.826Z,76137.89
2019-05-28T02:17:15.818Z,76177.82
2019-05-28T02:22:30.535Z,76193.79
2019-05-28T02:28:03.211Z,76178.81
2019-05-28T02:33:13.239Z,76208.77
2019-05-28T02:38:43.270Z,76248.70
2019-05-28T02:43:57.870Z,76270.66
2019-05-28T02:49:08.874Z,76294.62
2019-05-28T02:54:21.065Z,76254.69
2019-05-28T02:59:35.981Z,76213.76
2019-05-28T03:05:08.039Z,76175.82
2019-05-28T03:10:19.845Z,76159.84
2019-05-28T03:15:31.881Z,76152.86
2019-05-28T03:20:43.914Z,76133.90
2019-05-28T03:26:04.723Z,76115.93
2019-05-28T03:31:18.577Z,76148.88
2019-05-28T03:36:41.830Z,76164.84
2019-05-28T03:42:11.134Z,76155.86
2019-05-28T03:47:20.376Z,76155.86
2019-05-28T03:52:39.394Z,76163.84
2019-05-28T03:58:27.970Z,76170.83
2019-05-28T04:03:39.142Z,76168.83
2019-05-28T04:08:49.913Z,76146.88
2019-05-28T04:13:59.703Z,76152.86
2019-05-28T04:19:15.200Z,76148.88
2019-05-28T04:24:27.734Z,76148.88
2019-05-28T04:29:38.845Z,76132.90
2019-05-28T04:34:52.013Z,76139.89
2019-05-28T04:40:03.828Z,76160.84
2019-05-28T04:45:14.789Z,76164.84
2019-05-28T04:50:31.734Z,76190.80
2019-05-28T04:55:41.993Z,76176.82
2019-05-28T05:00:51.603Z,76163.84
2019-05-28T05:06:05.032Z,76150.86
2019-05-28T05:11:22.499Z,76168.83
2019-05-28T05:16:33.580Z,76176.82
2019-05-28T05:21:44.709Z,76176.82
2019-05-28T05:26:58.698Z,76180.81
2019-05-28T05:32:05.184Z,76174.83
2019-05-28T05:37:15.785Z,76164.84
2019-05-28T05:42:30.446Z,76168.83
2019-05-28T05:47:41.105Z,76168.83
2019-05-28T05:52:54.020Z,76215.75
2019-05-28T05:58:02.586Z,76252.69
2019-05-28T06:03:36.707Z,76330.55
2019-05-28T06:08:54.601Z,76365.50
2019-05-28T06:14:04.907Z,76433.38
2019-05-28T06:19:19.372Z,76491.28
2019-05-28T06:24:52.565Z,76488.29
2019-05-28T06:30:08.966Z,76497.27
2019-05-28T06:35:18.370Z,76504.27
2019-05-28T06:40:29.159Z,76512.25
2019-05-28T06:45:39.150Z,76512.25
2019-05-28T06:50:52.191Z,76510.25
2019-05-28T06:56:07.115Z,76548.19
2019-05-28T07:01:18.335Z,76523.23
2019-05-28T07:06:28.132Z,76526.23
2019-05-28T07:11:46.328Z,76552.18
2019-05-28T07:16:57.844Z,76536.21
2019-05-28T07:22:07.679Z,76582.13
2019-05-28T07:27:30.851Z,76608.09
2019-05-28T07:32:41.067Z,76646.03
2019-05-28T07:37:52.503Z,76650.02
2019-05-28T07:43:00.227Z,76611.09
2019-05-28T07:48:09.730Z,76603.09
2019-05-28T07:53:20.042Z,76598.11
2019-05-28T07:58:35.601Z,76586.13
2019-05-28T08:03:48.707Z,76570.16
2019-05-28T08:09:04.522Z,76566.16
2019-05-28T08:14:17.869Z,76564.16
2019-05-28T08:19:27.825Z,76567.16
2019-05-28T08:24:39.538Z,76576.14
2019-05-28T08:29:53.172Z,76537.20
2019-05-28T08:35:06.327Z,76537.20
2019-05-28T08:40:18.728Z,76514.25
2019-05-28T08:45:27.790Z,76498.27
2019-05-28T08:50:37.917Z,76481.30
2019-05-28T08:55:46.901Z,76464.33
2019-05-28T09:01:01.147Z,76484.30
2019-05-28T09:06:11.849Z,76442.37
2019-05-28T09:11:34.250Z,76477.30
2019-05-28T09:16:44.719Z,76434.38
2019-05-28T09:21:52.932Z,76404.43
2019-05-28T09:27:05.966Z,76356.52
2019-05-28T09:32:14.441Z,76392.45
2019-05-28T09:37:28.269Z,76411.42
2019-05-28T09:42:41.613Z,76481.30
2019-05-28T09:47:55.263Z,76498.27
2019-05-28T09:53:09.901Z,76534.22
2019-05-28T09:58:26.754Z,76535.21
2019-05-28T10:03:34.590Z,76548.19
2019-05-28T10:08:44.799Z,76566.16
2019-05-28T10:13:56.713Z,76605.09
2019-05-28T10:19:07.788Z,76605.09
2019-05-28T10:24:20.910Z,76592.12
2019-05-28T10:29:30.633Z,76609.09
2019-05-28T10:35:02.188Z,76589.13
2019-05-28T10:39:56.205Z,76638.05
2019-05-28T10:45:04.509Z,76617.08
2019-05-28T10:50:22.736Z,76586.13
2019-05-28T10:55:32.862Z,76541.20
2019-05-28T11:00:43.434Z,76500.27
2019-05-28T11:05:58.998Z,76500.27
2019-05-28T11:11:07.913Z,76460.34
2019-05-28T11:16:23.823Z,76497.27
2019-05-28T11:21:54.732Z,76490.28
2019-05-28T11:27:04.430Z,76500.27
2019-05-28T11:32:15.986Z,76573.15
2019-05-28T11:37:48.714Z,76606.09
2019-05-28T11:43:01.808Z,76629.06
2019-05-28T11:48:11.046Z,76666.00
2019-05-28T11:53:20.621Z,76665.00
2019-05-28T11:58:28.908Z,76598.11
2019-05-28T12:03:38.702Z,76569.16
2019-05-28T12:08:48.577Z,76526.23
2019-05-28T12:13:56.718Z,76504.27
2019-05-28T12:19:07.567Z,76433.38
2019-05-28T12:24:28.096Z,76394.45
2019-05-28T12:29:51.977Z,76344.53
2019-05-28T12:35:06.180Z,76296.61
2019-05-28T12:40:20.910Z,76321.57
2019-05-28T12:45:43.363Z,76304.60
2019-05-28T12:50:54.580Z,76324.56
2019-05-28T12:56:06.759Z,76277.64
2019-05-28T13:01:17.808Z,76220.75
2019-05-28T13:06:30.871Z,76219.75
2019-05-28T13:11:42.687Z,76192.80
2019-05-28T13:16:55.058Z,76222.74
2019-05-28T13:22:10.348Z,76209.77
2019-05-28T13:27:23.999Z,76077.00
2019-05-28T13:32:41.797Z,76074.00
2019-05-28T13:37:53.959Z,76111.94
2019-05-28T13:43:09.526Z,76146.88
2019-05-28T13:49:00.378Z,76065.02
2019-05-28T13:54:13.817Z,75999.14
2019-05-28T13:59:24.781Z,75903.31
2019-05-28T14:04:36.445Z,75454.15
2019-05-28T14:09:50.847Z,75472.11
2019-05-28T14:15:01.783Z,75593.88
2019-05-28T14:20:13.753Z,75974.18
2019-05-28T14:25:30.558Z,76107.94
2019-05-28T14:30:58.649Z,76157.85
2019-05-28T14:36:26.470Z,76306.59
2019-05-28T14:41:36.690Z,76470.31
2019-05-28T14:46:48.393Z,76618.08
2019-05-28T14:52:04.074Z,76779.81
2019-05-28T14:57:14.140Z,76813.76
2019-05-28T15:02:23.811Z,76755.85
2019-05-28T15:07:35.942Z,76689.95
2019-05-28T15:12:56.845Z,76669.98
2019-05-28T15:18:10.833Z,76610.09
2019-05-28T15:23:21.828Z,76537.20
2019-05-28T15:28:34.724Z,76502.27
2019-05-28T15:33:45.376Z,76557.17
2019-05-28T15:39:06.148Z,76616.08
2019-05-28T15:44:16.994Z,76607.09
2019-05-28T15:49:30.970Z,76575.14
2019-05-28T15:54:43.778Z,76577.14
2019-05-28T15:59:54.816Z,76536.21
2019-05-28T16:05:09.391Z,76471.31
2019-05-28T16:10:22.875Z,76396.44
2019-05-28T16:15:35.139Z,76307.59
2019-05-28T16:20:43.596Z,76280.64
2019-05-28T16:26:08.871Z,76358.51
2019-05-28T16:31:21.670Z,76425.39
2019-05-28T16:36:32.894Z,76398.44
2019-05-28T16:41:44.370Z,76366.49
2019-05-28T16:47:15.212Z,76364.50
2019-05-28T16:52:11.908Z,76426.39
2019-05-28T16:57:27.396Z,76551.19
2019-05-28T17:02:45.108Z,76604.09
2019-05-28T17:07:59.487Z,76602.10
2019-05-28T17:13:17.757Z,76644.03
2019-05-28T17:18:30.377Z,76699.94
2019-05-28T17:23:39.638Z,76726.90
2019-05-28T17:28:48.863Z,76719.91
2019-05-28T17:34:02.931Z,76707.93
2019-05-28T17:39:17.960Z,76732.89
2019-05-28T17:44:30.608Z,76768.83
2019-05-28T17:49:43.484Z,76785.80
2019-05-28T17:54:57.896Z,76812.77
2019-05-28T18:00:14.473Z,76841.72
2019-05-28T18:05:24.474Z,76845.70
2019-05-28T18:10:35.337Z,76841.72
2019-05-28T18:15:41.593Z,76841.72
2019-05-28T18:20:54.716Z,76843.71
2019-05-28T18:26:06.587Z,76849.70
2019-05-28T18:31:18.918Z,76862.68
2019-05-28T18:36:26.196Z,76835.73
2019-05-28T18:41:33.219Z,76819.75
2019-05-28T18:46:41.476Z,76845.70
2019-05-28T18:51:55.567Z,76888.64
2019-05-28T18:57:07.075Z,76918.59
2019-05-28T19:02:18.107Z,76948.55
2019-05-28T19:07:39.573Z,76976.50
2019-05-28T19:12:49.730Z,76945.55
2019-05-28T19:18:00.619Z,77001.47
2019-05-28T19:23:09.181Z,77024.43
2019-05-28T19:28:21.925Z,77059.38
2019-05-28T19:33:32.575Z,77081.34
2019-05-28T19:38:45.678Z,77115.30
2019-05-28T19:43:51.622Z,77155.23
2019-05-28T19:49:04.518Z,77192.17
2019-05-28T19:54:16.899Z,77211.15
2019-05-28T19:59:34.365Z,77237.11
2019-05-28T20:04:42.382Z,77270.06
2019-05-28T20:09:58.642Z,77294.02
2019-05-28T20:15:09.969Z,77305.01
2019-05-28T20:20:30.127Z,77331.97
2019-05-28T20:25:51.145Z,77346.95
2019-05-28T20:30:56.833Z,77371.91
2019-05-28T20:36:28.255Z,77402.87
2019-05-28T20:41:44.744Z,77429.83
2019-05-28T20:47:00.466Z,77445.80
2019-05-28T20:52:09.228Z,77453.80
2019-05-28T20:57:15.452Z,77481.75
2019-05-28T21:02:28.100Z,77498.73
2019-05-28T21:07:33.332Z,77504.72
2019-05-28T21:12:44.813Z,77514.70
2019-05-28T21:17:51.403Z,77532.68
2019-05-28T21:23:03.082Z,77528.69
2019-05-28T21:28:14.401Z,77537.67
2019-05-28T21:33:22.793Z,77542.67
2019-05-28T21:38:29.911Z,77571.63
2019-05-28T21:43:36.765Z,77576.63
2019-05-28T21:48:47.389Z,77574.63
2019-05-28T21:53:55.129Z,77578.62
2019-05-28T21:59:04.148Z,77582.61
2019-05-28T22:04:13.811Z,77584.61
2019-05-28T22:09:22.558Z,77599.59
2019-05-28T22:14:29.515Z,77608.58
2019-05-28T22:19:39.070Z,77596.59
2019-05-28T22:24:45.781Z,77593.59
2019-05-28T22:29:52.929Z,77596.59
2019-05-28T22:35:02.314Z,77598.59
2019-05-28T22:40:16.547Z,77608.58
2019-05-28T22:45:24.401Z,77627.55
2019-05-28T22:50:34.014Z,77628.55
2019-05-28T22:55:43.447Z,77625.55
2019-05-28T23:00:52.649Z,77640.53
2019-05-28T23:06:09.699Z,77678.48
2019-05-28T23:11:20.354Z,77681.48
2019-05-28T23:16:25.607Z,77717.42
2019-05-28T23:21:36.897Z,77759.37
2019-05-28T23:26:43.677Z,77746.39
2019-05-28T23:31:54.165Z,77732.41
2019-05-28T23:36:59.478Z,77742.39
2019-05-28T23:42:11.625Z,77757.38
2019-05-28T23:47:21.213Z,77771.35
2019-05-28T23:52:26.833Z,77789.33
2019-05-28T23:57:32.657Z,77805.31
